sensor_id;sensor_type;location;lat;lon;timestamp;pressure;altitude;pressure_sealevel;temperature;humidity
77725;BME280;66892;53.236;6.550;2023-04-25T00:01:06;100997.28;;;6.13;80.22
77725;BME280;66892;53.236;6.550;2023-04-25T00:03:32;100992.16;;;6.19;78.50
77725;BME280;66892;53.236;6.550;2023-04-25T00:05:59;101001.72;;;6.16;79.35
77725;BME280;66892;53.236;6.550;2023-04-25T00:08:28;101006.97;;;6.16;80.29
77725;BME280;66892;53.236;6.550;2023-04-25T00:10:55;101003.56;;;6.23;79.70
77725;BME280;66892;53.236;6.550;2023-04-25T00:13:21;101011.63;;;6.33;79.36
77725;BME280;66892;53.236;6.550;2023-04-25T00:15:47;101004.78;;;6.43;79.25
77725;BME280;66892;53.236;6.550;2023-04-25T00:18:14;101010.84;;;6.38;80.36
77725;BME280;66892;53.236;6.550;2023-04-25T00:20:40;101013.47;;;6.39;80.47
77725;BME280;66892;53.236;6.550;2023-04-25T00:23:07;101018.81;;;6.42;80.16
77725;BME280;66892;53.236;6.550;2023-04-25T00:25:33;101021.31;;;6.34;77.95
77725;BME280;66892;53.236;6.550;2023-04-25T00:27:59;101032.34;;;6.17;78.42
77725;BME280;66892;53.236;6.550;2023-04-25T00:30:25;101031.50;;;6.16;77.91
77725;BME280;66892;53.236;6.550;2023-04-25T00:32:51;101034.88;;;6.11;78.72
77725;BME280;66892;53.236;6.550;2023-04-25T00:35:17;101033.88;;;6.04;76.98
77725;BME280;66892;53.236;6.550;2023-04-25T00:37:43;101028.53;;;5.97;77.30
77725;BME280;66892;53.236;6.550;2023-04-25T00:40:11;101036.25;;;5.89;77.58
77725;BME280;66892;53.236;6.550;2023-04-25T00:42:37;101024.00;;;5.90;75.80
77725;BME280;66892;53.236;6.550;2023-04-25T00:45:05;101030.22;;;5.95;76.33
77725;BME280;66892;53.236;6.550;2023-04-25T00:47:33;101028.47;;;5.94;76.30
77725;BME280;66892;53.236;6.550;2023-04-25T00:49:59;101024.91;;;5.92;75.72
77725;BME280;66892;53.236;6.550;2023-04-25T00:52:25;101026.84;;;6.02;74.76
77725;BME280;66892;53.236;6.550;2023-04-25T00:54:51;101031.16;;;5.97;74.46
77725;BME280;66892;53.236;6.550;2023-04-25T00:57:18;101034.81;;;6.06;75.05
77725;BME280;66892;53.236;6.550;2023-04-25T00:59:45;101033.88;;;6.03;75.71
77725;BME280;66892;53.236;6.550;2023-04-25T01:02:12;101035.63;;;6.02;74.25
77725;BME280;66892;53.236;6.550;2023-04-25T01:04:38;101034.81;;;6.06;73.14
77725;BME280;66892;53.236;6.550;2023-04-25T01:07:04;101035.72;;;6.08;71.83
77725;BME280;66892;53.236;6.550;2023-04-25T01:09:30;101031.22;;;6.01;71.55
77725;BME280;66892;53.236;6.550;2023-04-25T01:11:57;101026.91;;;6.05;69.11
77725;BME280;66892;53.236;6.550;2023-04-25T01:14:25;101035.72;;;6.08;68.05
77725;BME280;66892;53.236;6.550;2023-04-25T01:16:51;101027.00;;;6.11;68.04
77725;BME280;66892;53.236;6.550;2023-04-25T01:19:19;101031.25;;;6.03;68.67
77725;BME280;66892;53.236;6.550;2023-04-25T01:21:47;101033.94;;;6.07;67.47
77725;BME280;66892;53.236;6.550;2023-04-25T01:24:13;101027.84;;;6.07;66.69
77725;BME280;66892;53.236;6.550;2023-04-25T01:26:41;101032.19;;;6.06;67.98
77725;BME280;66892;53.236;6.550;2023-04-25T01:29:10;101033.19;;;6.13;67.80
77725;BME280;66892;53.236;6.550;2023-04-25T01:31:36;101045.38;;;6.11;67.26
77725;BME280;66892;53.236;6.550;2023-04-25T01:34:02;101040.88;;;6.04;69.21
77725;BME280;66892;53.236;6.550;2023-04-25T01:36:28;101045.22;;;6.00;69.07
77725;BME280;66892;53.236;6.550;2023-04-25T01:38:56;101045.06;;;5.94;70.63
77725;BME280;66892;53.236;6.550;2023-04-25T01:41:22;101048.69;;;5.99;69.64
77725;BME280;66892;53.236;6.550;2023-04-25T01:43:49;101047.00;;;6.04;69.99
77725;BME280;66892;53.236;6.550;2023-04-25T01:46:15;101043.44;;;6.01;70.48
77725;BME280;66892;53.236;6.550;2023-04-25T01:48:41;101048.72;;;6.02;70.98
77725;BME280;66892;53.236;6.550;2023-04-25T01:51:07;101044.28;;;5.98;71.52
77725;BME280;66892;53.236;6.550;2023-04-25T01:53:33;101043.44;;;6.01;71.42
77725;BME280;66892;53.236;6.550;2023-04-25T01:56:01;101051.38;;;6.04;71.94
77725;BME280;66892;53.236;6.550;2023-04-25T01:58:27;101057.41;;;5.98;72.81
77725;BME280;66892;53.236;6.550;2023-04-25T02:00:53;101061.69;;;5.95;73.94
77725;BME280;66892;53.236;6.550;2023-04-25T02:03:19;101062.53;;;5.92;74.24
77725;BME280;66892;53.236;6.550;2023-04-25T02:05:45;101066.00;;;5.91;72.90
77725;BME280;66892;53.236;6.550;2023-04-25T02:08:11;101066.75;;;5.84;72.74
77725;BME280;66892;53.236;6.550;2023-04-25T02:10:37;101063.84;;;5.70;73.30
77725;BME280;66892;53.236;6.550;2023-04-25T02:13:04;101074.03;;;5.55;74.96
77725;BME280;66892;53.236;6.550;2023-04-25T02:15:31;101068.81;;;5.57;74.43
77725;BME280;66892;53.236;6.550;2023-04-25T02:17:57;101069.44;;;5.45;74.54
77725;BME280;66892;53.236;6.550;2023-04-25T02:20:24;101076.38;;;5.42;75.03
77725;BME280;66892;53.236;6.550;2023-04-25T02:22:50;101080.97;;;5.53;73.24
77725;BME280;66892;53.236;6.550;2023-04-25T02:25:17;101087.81;;;5.47;74.71
77725;BME280;66892;53.236;6.550;2023-04-25T02:27:43;101078.22;;;5.47;75.18
77725;BME280;66892;53.236;6.550;2023-04-25T02:30:11;101077.22;;;5.41;75.58
77725;BME280;66892;53.236;6.550;2023-04-25T02:32:38;101076.09;;;5.29;77.66
77725;BME280;66892;53.236;6.550;2023-04-25T02:35:05;101071.66;;;5.27;77.65
77725;BME280;66892;53.236;6.550;2023-04-25T02:37:33;101076.06;;;5.28;77.07
77725;BME280;66892;53.236;6.550;2023-04-25T02:40:00;101076.84;;;5.24;77.35
77725;BME280;66892;53.236;6.550;2023-04-25T02:42:27;101077.72;;;5.24;77.52
77725;BME280;66892;53.236;6.550;2023-04-25T02:44:53;101071.72;;;5.30;77.63
77725;BME280;66892;53.236;6.550;2023-04-25T02:47:20;101080.66;;;5.38;75.97
77725;BME280;66892;53.236;6.550;2023-04-25T02:49:46;101074.72;;;5.47;74.83
77725;BME280;66892;53.236;6.550;2023-04-25T02:52:13;101081.69;;;5.46;75.53
77725;BME280;66892;53.236;6.550;2023-04-25T02:54:39;101082.63;;;5.50;75.04
77725;BME280;66892;53.236;6.550;2023-04-25T02:57:05;101076.50;;;5.49;75.64
77725;BME280;66892;53.236;6.550;2023-04-25T02:59:32;101072.44;;;5.62;73.96
77725;BME280;66892;53.236;6.550;2023-04-25T03:01:58;101080.25;;;5.60;74.22
77725;BME280;66892;53.236;6.550;2023-04-25T03:04:25;101077.56;;;5.59;75.27
77725;BME280;66892;53.236;6.550;2023-04-25T03:06:52;101081.78;;;5.51;74.91
77725;BME280;66892;53.236;6.550;2023-04-25T03:09:18;101081.00;;;5.55;74.69
77725;BME280;66892;53.236;6.550;2023-04-25T03:11:45;101087.09;;;5.54;73.12
77725;BME280;66892;53.236;6.550;2023-04-25T03:14:11;101084.53;;;5.57;73.94
77725;BME280;66892;53.236;6.550;2023-04-25T03:16:37;101084.28;;;5.45;73.95
77725;BME280;66892;53.236;6.550;2023-04-25T03:19:04;101089.09;;;5.25;73.64
77725;BME280;66892;53.236;6.550;2023-04-25T03:21:32;101087.06;;;5.12;73.24
77725;BME280;66892;53.236;6.550;2023-04-25T03:24:00;101084.25;;;5.03;72.41
77725;BME280;66892;53.236;6.550;2023-04-25T03:26:26;101083.22;;;4.96;71.94
77725;BME280;66892;53.236;6.550;2023-04-25T03:28:52;101084.91;;;4.94;70.97
77725;BME280;66892;53.236;6.550;2023-04-25T03:31:18;101083.88;;;4.88;71.84
77725;BME280;66892;53.236;6.550;2023-04-25T03:33:44;101091.44;;;4.75;72.92
77725;BME280;66892;53.236;6.550;2023-04-25T03:36:10;101097.41;;;4.70;72.97
77725;BME280;66892;53.236;6.550;2023-04-25T03:38:37;101104.31;;;4.66;72.96
77725;BME280;66892;53.236;6.550;2023-04-25T03:41:03;101103.41;;;4.64;73.66
77725;BME280;66892;53.236;6.550;2023-04-25T03:43:29;101099.13;;;4.68;72.62
77725;BME280;66892;53.236;6.550;2023-04-25T03:45:56;101097.41;;;4.68;72.88
77725;BME280;66892;53.236;6.550;2023-04-25T03:48:22;101105.06;;;4.61;73.96
77725;BME280;66892;53.236;6.550;2023-04-25T03:50:50;101119.72;;;4.54;74.76
77725;BME280;66892;53.236;6.550;2023-04-25T03:53:16;101123.38;;;4.61;73.31
77725;BME280;66892;53.236;6.550;2023-04-25T03:55:43;101126.69;;;4.54;73.85
77725;BME280;66892;53.236;6.550;2023-04-25T03:58:09;101119.88;;;4.60;73.46
77725;BME280;66892;53.236;6.550;2023-04-25T04:00:35;101129.38;;;4.57;74.29
77725;BME280;66892;53.236;6.550;2023-04-25T04:03:02;101123.84;;;4.45;76.34
77725;BME280;66892;53.236;6.550;2023-04-25T04:05:28;101123.69;;;4.39;76.48
77725;BME280;66892;53.236;6.550;2023-04-25T04:07:54;101128.69;;;4.30;77.52
77725;BME280;66892;53.236;6.550;2023-04-25T04:10:21;101134.91;;;4.33;77.29
77725;BME280;66892;53.236;6.550;2023-04-25T04:12:48;101134.91;;;4.33;77.66
77725;BME280;66892;53.236;6.550;2023-04-25T04:15:14;101140.81;;;4.26;79.04
77725;BME280;66892;53.236;6.550;2023-04-25T04:17:40;101145.66;;;4.12;79.66
77725;BME280;66892;53.236;6.550;2023-04-25T04:20:07;101142.31;;;4.18;79.80
77725;BME280;66892;53.236;6.550;2023-04-25T04:22:34;101152.59;;;4.10;79.56
77725;BME280;66892;53.236;6.550;2023-04-25T04:25:00;101145.66;;;4.12;80.10
77725;BME280;66892;53.236;6.550;2023-04-25T04:27:26;101145.59;;;4.09;80.43
77725;BME280;66892;53.236;6.550;2023-04-25T04:29:55;101150.69;;;4.05;81.01
77725;BME280;66892;53.236;6.550;2023-04-25T04:32:21;101159.34;;;4.02;81.98
77725;BME280;66892;53.236;6.550;2023-04-25T04:34:49;101155.31;;;4.15;80.21
77725;BME280;66892;53.236;6.550;2023-04-25T04:37:15;101155.06;;;4.06;81.66
77725;BME280;66892;53.236;6.550;2023-04-25T04:39:41;101158.75;;;4.12;80.48
77725;BME280;66892;53.236;6.550;2023-04-25T04:42:07;101158.59;;;4.08;81.27
77725;BME280;66892;53.236;6.550;2023-04-25T04:44:34;101161.38;;;4.12;80.67
77725;BME280;66892;53.236;6.550;2023-04-25T04:47:02;101179.91;;;4.20;80.71
77725;BME280;66892;53.236;6.550;2023-04-25T04:49:31;101167.91;;;4.28;79.76
77725;BME280;66892;53.236;6.550;2023-04-25T04:51:58;101175.22;;;4.40;79.56
77725;BME280;66892;53.236;6.550;2023-04-25T04:54:25;101175.63;;;4.55;78.09
77725;BME280;66892;53.236;6.550;2023-04-25T04:56:51;101168.03;;;4.65;77.62
77725;BME280;66892;53.236;6.550;2023-04-25T04:59:18;101183.94;;;4.73;77.41
77725;BME280;66892;53.236;6.550;2023-04-25T05:01:44;101207.78;;;4.84;78.11
77725;BME280;66892;53.236;6.550;2023-04-25T05:04:11;101221.28;;;4.64;80.70
77725;BME280;66892;53.236;6.550;2023-04-25T05:06:37;101212.19;;;4.52;83.30
77725;BME280;66892;53.236;6.550;2023-04-25T05:09:03;101203.16;;;4.41;82.50
77725;BME280;66892;53.236;6.550;2023-04-25T05:11:29;101198.00;;;4.44;81.37
77725;BME280;66892;53.236;6.550;2023-04-25T05:13:55;101198.13;;;4.48;78.72
77725;BME280;66892;53.236;6.550;2023-04-25T05:16:22;101205.84;;;4.42;79.04
77725;BME280;66892;53.236;6.550;2023-04-25T05:18:48;101204.97;;;4.43;77.68
77725;BME280;66892;53.236;6.550;2023-04-25T05:21:15;101207.41;;;4.37;76.71
77725;BME280;66892;53.236;6.550;2023-04-25T05:23:41;101214.09;;;4.26;78.39
77725;BME280;66892;53.236;6.550;2023-04-25T05:26:07;101212.28;;;4.23;75.17
77725;BME280;66892;53.236;6.550;2023-04-25T05:28:39;101208.28;;;4.36;75.98
77725;BME280;66892;53.236;6.550;2023-04-25T05:31:05;101209.13;;;4.37;76.23
77725;BME280;66892;53.236;6.550;2023-04-25T05:33:32;101210.34;;;4.48;75.18
77725;BME280;66892;53.236;6.550;2023-04-25T05:35:58;101213.25;;;4.58;75.76
77725;BME280;66892;53.236;6.550;2023-04-25T05:38:25;101217.47;;;4.86;74.32
77725;BME280;66892;53.236;6.550;2023-04-25T05:40:51;101215.56;;;5.15;73.91
77725;BME280;66892;53.236;6.550;2023-04-25T05:43:17;101211.97;;;5.46;72.85
77725;BME280;66892;53.236;6.550;2023-04-25T05:45:43;101209.41;;;5.50;72.19
77725;BME280;66892;53.236;6.550;2023-04-25T05:48:09;101220.38;;;5.32;73.29
77725;BME280;66892;53.236;6.550;2023-04-25T05:50:36;101221.16;;;5.30;73.59
77725;BME280;66892;53.236;6.550;2023-04-25T05:53:02;101225.38;;;5.22;74.30
77725;BME280;66892;53.236;6.550;2023-04-25T05:55:29;101235.09;;;5.27;74.65
77725;BME280;66892;53.236;6.550;2023-04-25T05:57:55;101245.03;;;5.41;74.22
77725;BME280;66892;53.236;6.550;2023-04-25T06:00:21;101241.72;;;5.48;73.76
77725;BME280;66892;53.236;6.550;2023-04-25T06:02:48;101243.56;;;5.52;73.04
77725;BME280;66892;53.236;6.550;2023-04-25T06:05:14;101232.31;;;5.57;71.35
77725;BME280;66892;53.236;6.550;2023-04-25T06:07:40;101228.88;;;5.60;71.74
77725;BME280;66892;53.236;6.550;2023-04-25T06:10:07;101238.44;;;5.94;69.63
77725;BME280;66892;53.236;6.550;2023-04-25T06:12:35;101233.75;;;5.82;67.94
77725;BME280;66892;53.236;6.550;2023-04-25T06:15:01;101234.31;;;5.69;67.90
77725;BME280;66892;53.236;6.550;2023-04-25T06:17:27;101243.78;;;5.61;67.47
77725;BME280;66892;53.236;6.550;2023-04-25T06:19:53;101251.19;;;5.43;69.64
77725;BME280;66892;53.236;6.550;2023-04-25T06:22:19;101249.66;;;5.88;67.61
77725;BME280;66892;53.236;6.550;2023-04-25T06:24:45;101255.78;;;6.71;64.50
77725;BME280;66892;53.236;6.550;2023-04-25T06:27:11;101252.41;;;7.29;61.98
77725;BME280;66892;53.236;6.550;2023-04-25T06:29:39;101253.19;;;7.79;60.32
77725;BME280;66892;53.236;6.550;2023-04-25T06:32:05;101258.81;;;8.06;59.09
77725;BME280;66892;53.236;6.550;2023-04-25T06:34:31;101254.22;;;8.53;58.63
77725;BME280;66892;53.236;6.550;2023-04-25T06:36:57;101248.59;;;9.07;56.60
77725;BME280;66892;53.236;6.550;2023-04-25T06:39:23;101247.28;;;8.63;57.68
77725;BME280;66892;53.236;6.550;2023-04-25T06:41:50;101252.97;;;8.27;60.03
77725;BME280;66892;53.236;6.550;2023-04-25T06:44:16;101267.41;;;7.91;61.04
77725;BME280;66892;53.236;6.550;2023-04-25T06:46:43;101263.09;;;7.39;64.73
77725;BME280;66892;53.236;6.550;2023-04-25T06:49:10;101290.00;;;7.22;67.59
77725;BME280;66892;53.236;6.550;2023-04-25T06:51:36;101282.72;;;7.07;69.32
77725;BME280;66892;53.236;6.550;2023-04-25T06:54:02;101284.09;;;7.36;68.29
77725;BME280;66892;53.236;6.550;2023-04-25T06:56:29;101278.97;;;7.44;66.51
77725;BME280;66892;53.236;6.550;2023-04-25T06:58:56;101295.28;;;7.23;65.12
77725;BME280;66892;53.236;6.550;2023-04-25T07:01:22;101284.28;;;7.47;65.36
77725;BME280;66892;53.236;6.550;2023-04-25T07:03:49;101286.84;;;7.42;64.32
77725;BME280;66892;53.236;6.550;2023-04-25T07:06:15;101291.53;;;7.62;64.10
77725;BME280;66892;53.236;6.550;2023-04-25T07:08:41;101296.03;;;7.69;64.93
77725;BME280;66892;53.236;6.550;2023-04-25T07:11:07;101291.69;;;7.72;63.36
77725;BME280;66892;53.236;6.550;2023-04-25T07:13:33;101285.72;;;7.82;64.52
77725;BME280;66892;53.236;6.550;2023-04-25T07:15:59;101289.28;;;7.86;61.31
77725;BME280;66892;53.236;6.550;2023-04-25T07:18:25;101302.19;;;7.69;60.43
77725;BME280;66892;53.236;6.550;2023-04-25T07:20:53;101301.47;;;7.79;59.46
77725;BME280;66892;53.236;6.550;2023-04-25T07:23:19;101293.75;;;7.93;59.12
77725;BME280;66892;53.236;6.550;2023-04-25T07:25:45;101312.03;;;7.82;59.18
77725;BME280;66892;53.236;6.550;2023-04-25T07:28:11;101309.59;;;7.94;61.71
77725;BME280;66892;53.236;6.550;2023-04-25T07:30:37;101313.66;;;7.74;60.28
77725;BME280;66892;53.236;6.550;2023-04-25T07:33:03;101306.66;;;7.75;61.55
77725;BME280;66892;53.236;6.550;2023-04-25T07:35:29;101317.41;;;7.88;61.25
77725;BME280;66892;53.236;6.550;2023-04-25T07:37:56;101320.09;;;7.91;60.86
77725;BME280;66892;53.236;6.550;2023-04-25T07:40:22;101313.75;;;7.79;61.39
77725;BME280;66892;53.236;6.550;2023-04-25T07:42:49;101325.88;;;7.69;61.58
77725;BME280;66892;53.236;6.550;2023-04-25T07:45:15;101320.22;;;7.47;61.63
77725;BME280;66892;53.236;6.550;2023-04-25T07:47:41;101321.72;;;7.31;62.57
77725;BME280;66892;53.236;6.550;2023-04-25T07:50:08;101324.59;;;7.46;60.94
77725;BME280;66892;53.236;6.550;2023-04-25T07:52:34;101336.81;;;7.95;59.83
77725;BME280;66892;53.236;6.550;2023-04-25T07:55:02;101343.03;;;8.00;58.17
77725;BME280;66892;53.236;6.550;2023-04-25T07:57:28;101335.41;;;8.83;56.33
77725;BME280;66892;53.236;6.550;2023-04-25T07:59:55;101343.56;;;10.03;53.04
77725;BME280;66892;53.236;6.550;2023-04-25T08:02:21;101347.31;;;10.40;52.45
77725;BME280;66892;53.236;6.550;2023-04-25T08:04:46;101355.69;;;9.76;55.65
77725;BME280;66892;53.236;6.550;2023-04-25T08:07:15;101380.63;;;8.47;59.55
77725;BME280;66892;53.236;6.550;2023-04-25T08:09:41;101430.41;;;7.28;64.83
77725;BME280;66892;53.236;6.550;2023-04-25T08:12:08;101430.53;;;6.51;69.22
77725;BME280;66892;53.236;6.550;2023-04-25T08:14:34;101424.47;;;5.83;72.63
77725;BME280;66892;53.236;6.550;2023-04-25T08:17:05;101422.09;;;5.58;73.54
77725;BME280;66892;53.236;6.550;2023-04-25T08:19:31;101408.97;;;5.58;72.53
77725;BME280;66892;53.236;6.550;2023-04-25T08:21:57;101407.84;;;5.82;72.84
77725;BME280;66892;53.236;6.550;2023-04-25T08:24:23;101386.53;;;6.03;71.51
77725;BME280;66892;53.236;6.550;2023-04-25T08:26:49;101383.25;;;6.13;68.43
77725;BME280;66892;53.236;6.550;2023-04-25T08:29:16;101388.69;;;6.21;69.62
77725;BME280;66892;53.236;6.550;2023-04-25T08:31:43;101384.84;;;6.46;68.41
77725;BME280;66892;53.236;6.550;2023-04-25T08:34:09;101386.28;;;6.70;67.17
77725;BME280;66892;53.236;6.550;2023-04-25T08:36:35;101391.84;;;6.85;67.46
77725;BME280;66892;53.236;6.550;2023-04-25T08:39:01;101394.09;;;7.09;64.73
77725;BME280;66892;53.236;6.550;2023-04-25T08:41:27;101399.13;;;7.94;63.09
77725;BME280;66892;53.236;6.550;2023-04-25T08:43:56;101395.41;;;9.88;55.66
77725;BME280;66892;53.236;6.550;2023-04-25T08:46:24;101408.34;;;9.59;56.53
77725;BME280;66892;53.236;6.550;2023-04-25T08:48:53;101403.22;;;8.96;55.81
77725;BME280;66892;53.236;6.550;2023-04-25T08:51:23;101407.13;;;9.28;56.59
77725;BME280;66892;53.236;6.550;2023-04-25T08:53:53;101409.38;;;9.76;55.39
77725;BME280;66892;53.236;6.550;2023-04-25T08:56:19;101410.44;;;11.70;52.38
77725;BME280;66892;53.236;6.550;2023-04-25T08:58:48;101405.13;;;12.34;49.29
77725;BME280;66892;53.236;6.550;2023-04-25T09:01:14;101405.88;;;12.83;47.89
77725;BME280;66892;53.236;6.550;2023-04-25T09:03:41;101400.47;;;13.14;48.31
77725;BME280;66892;53.236;6.550;2023-04-25T09:06:09;101407.34;;;13.55;46.68
77725;BME280;66892;53.236;6.550;2023-04-25T09:08:36;101404.22;;;12.47;50.04
77725;BME280;66892;53.236;6.550;2023-04-25T09:11:02;101412.19;;;11.79;50.44
77725;BME280;66892;53.236;6.550;2023-04-25T09:13:29;101413.06;;;12.20;49.96
77725;BME280;66892;53.236;6.550;2023-04-25T09:15:56;101421.59;;;10.75;54.19
77725;BME280;66892;53.236;6.550;2023-04-25T09:18:23;101421.00;;;11.64;52.83
77725;BME280;66892;53.236;6.550;2023-04-25T09:20:52;101413.09;;;12.29;52.25
77725;BME280;66892;53.236;6.550;2023-04-25T09:23:20;101422.50;;;10.86;51.44
77725;BME280;66892;53.236;6.550;2023-04-25T09:25:48;101422.78;;;9.99;51.94
77725;BME280;66892;53.236;6.550;2023-04-25T09:28:14;101444.75;;;9.12;56.28
77725;BME280;66892;53.236;6.550;2023-04-25T09:30:40;101437.22;;;8.72;60.16
77725;BME280;66892;53.236;6.550;2023-04-25T09:33:07;101447.50;;;8.54;60.85
77725;BME280;66892;53.236;6.550;2023-04-25T09:35:37;101450.47;;;8.76;58.44
77725;BME280;66892;53.236;6.550;2023-04-25T09:38:09;101452.19;;;10.34;52.42
77725;BME280;66892;53.236;6.550;2023-04-25T09:40:39;101458.16;;;11.87;45.51
77725;BME280;66892;53.236;6.550;2023-04-25T09:43:09;101450.19;;;12.46;43.58
77725;BME280;66892;53.236;6.550;2023-04-25T09:45:40;101447.31;;;13.32;41.11
77725;BME280;66892;53.236;6.550;2023-04-25T09:48:07;101459.88;;;11.73;43.83
77725;BME280;66892;53.236;6.550;2023-04-25T09:50:33;101460.78;;;11.70;46.33
77725;BME280;66892;53.236;6.550;2023-04-25T09:53:03;101464.31;;;11.75;47.45
77725;BME280;66892;53.236;6.550;2023-04-25T09:55:31;101467.88;;;12.27;45.58
77725;BME280;66892;53.236;6.550;2023-04-25T09:58:03;101469.41;;;13.42;43.00
77725;BME280;66892;53.236;6.550;2023-04-25T10:00:30;101473.13;;;12.86;44.71
77725;BME280;66892;53.236;6.550;2023-04-25T10:02:59;101474.91;;;11.75;47.72
77725;BME280;66892;53.236;6.550;2023-04-25T10:05:27;101493.41;;;13.01;45.44
77725;BME280;66892;53.236;6.550;2023-04-25T10:07:56;101486.47;;;12.32;45.38
77725;BME280;66892;53.236;6.550;2023-04-25T10:10:22;101504.91;;;13.10;44.23
77725;BME280;66892;53.236;6.550;2023-04-25T10:12:53;101515.78;;;10.59;53.86
77725;BME280;66892;53.236;6.550;2023-04-25T10:15:19;101511.28;;;10.43;56.89
77725;BME280;66892;53.236;6.550;2023-04-25T10:17:45;101512.59;;;9.99;57.92
77725;BME280;66892;53.236;6.550;2023-04-25T10:20:12;101501.72;;;10.61;55.86
77725;BME280;66892;53.236;6.550;2023-04-25T10:22:41;101503.50;;;9.70;58.33
77725;BME280;66892;53.236;6.550;2023-04-25T10:25:08;101517.59;;;10.62;56.11
77725;BME280;66892;53.236;6.550;2023-04-25T10:27:35;101514.72;;;12.52;50.16
77725;BME280;66892;53.236;6.550;2023-04-25T10:30:04;101502.22;;;13.32;46.62
77725;BME280;66892;53.236;6.550;2023-04-25T10:32:31;101494.53;;;14.27;44.16
77725;BME280;66892;53.236;6.550;2023-04-25T10:35:10;101489.72;;;15.51;41.28
77725;BME280;66892;53.236;6.550;2023-04-25T10:37:37;101491.00;;;14.24;41.91
77725;BME280;66892;53.236;6.550;2023-04-25T10:40:08;101488.16;;;12.83;45.45
77725;BME280;66892;53.236;6.550;2023-04-25T10:42:35;101524.16;;;11.26;50.98
77725;BME280;66892;53.236;6.550;2023-04-25T10:45:05;101542.66;;;10.07;55.09
77725;BME280;66892;53.236;6.550;2023-04-25T10:47:35;101558.72;;;8.85;58.24
77725;BME280;66892;53.236;6.550;2023-04-25T10:50:05;101565.59;;;7.78;63.48
77725;BME280;66892;53.236;6.550;2023-04-25T10:52:32;101543.16;;;7.54;65.75
77725;BME280;66892;53.236;6.550;2023-04-25T10:54:59;101535.63;;;8.71;62.56
77725;BME280;66892;53.236;6.550;2023-04-25T10:57:36;101525.97;;;11.33;57.41
77725;BME280;66892;53.236;6.550;2023-04-25T11:00:10;101525.34;;;12.71;49.42
77725;BME280;66892;53.236;6.550;2023-04-25T11:02:41;101526.06;;;13.39;47.30
77725;BME280;66892;53.236;6.550;2023-04-25T11:05:09;101512.75;;;13.47;47.42
77725;BME280;66892;53.236;6.550;2023-04-25T11:07:38;101521.28;;;14.09;45.77
77725;BME280;66892;53.236;6.550;2023-04-25T11:10:10;101524.69;;;14.26;41.17
77725;BME280;66892;53.236;6.550;2023-04-25T11:12:36;101515.78;;;14.31;43.09
77725;BME280;66892;53.236;6.550;2023-04-25T11:15:03;101534.13;;;14.68;38.36
77725;BME280;66892;53.236;6.550;2023-04-25T11:17:31;101535.31;;;14.31;36.52
77725;BME280;66892;53.236;6.550;2023-04-25T11:19:57;101523.56;;;14.59;38.90
77725;BME280;66892;53.236;6.550;2023-04-25T11:22:24;101524.22;;;14.86;37.11
77725;BME280;66892;53.236;6.550;2023-04-25T11:24:50;101524.44;;;14.60;39.09
77725;BME280;66892;53.236;6.550;2023-04-25T11:27:16;101540.75;;;15.16;36.80
77725;BME280;66892;53.236;6.550;2023-04-25T11:29:42;101539.88;;;14.11;38.82
77725;BME280;66892;53.236;6.550;2023-04-25T11:32:08;101542.41;;;14.27;36.99
77725;BME280;66892;53.236;6.550;2023-04-25T11:34:36;101559.13;;;14.51;38.08
77725;BME280;66892;53.236;6.550;2023-04-25T11:37:02;101545.41;;;14.95;36.63
77725;BME280;66892;53.236;6.550;2023-04-25T11:39:29;101539.81;;;15.20;37.63
77725;BME280;66892;53.236;6.550;2023-04-25T11:41:55;101553.25;;;13.94;40.59
77725;BME280;66892;53.236;6.550;2023-04-25T11:44:22;101556.69;;;14.13;41.39
77725;BME280;66892;53.236;6.550;2023-04-25T11:46:48;101557.19;;;12.54;40.37
77725;BME280;66892;53.236;6.550;2023-04-25T11:49:15;101556.16;;;13.43;38.31
77725;BME280;66892;53.236;6.550;2023-04-25T11:51:44;101546.81;;;14.38;38.94
77725;BME280;66892;53.236;6.550;2023-04-25T11:54:10;101551.00;;;14.66;37.14
77725;BME280;66892;53.236;6.550;2023-04-25T11:56:37;101577.44;;;13.34;38.49
77725;BME280;66892;53.236;6.550;2023-04-25T11:59:04;101560.56;;;13.53;37.78
77725;BME280;66892;53.236;6.550;2023-04-25T12:01:32;101558.94;;;15.59;36.85
77725;BME280;66892;53.236;6.550;2023-04-25T12:03:58;101557.72;;;15.06;35.95
77725;BME280;66892;53.236;6.550;2023-04-25T12:06:36;101559.50;;;13.93;38.90
77725;BME280;66892;53.236;6.550;2023-04-25T12:09:07;101577.53;;;12.44;42.66
77725;BME280;66892;53.236;6.550;2023-04-25T12:11:40;101568.69;;;12.57;43.34
77725;BME280;66892;53.236;6.550;2023-04-25T12:14:06;101578.78;;;11.12;44.22
77725;BME280;66892;53.236;6.550;2023-04-25T12:16:40;101580.13;;;13.20;39.85
77725;BME280;66892;53.236;6.550;2023-04-25T12:19:07;101573.44;;;14.33;38.68
77725;BME280;66892;53.236;6.550;2023-04-25T12:21:33;101575.75;;;12.37;41.97
77725;BME280;66892;53.236;6.550;2023-04-25T12:24:11;101573.25;;;14.60;36.11
77725;BME280;66892;53.236;6.550;2023-04-25T12:26:47;101576.31;;;14.00;38.30
77725;BME280;66892;53.236;6.550;2023-04-25T12:29:18;101581.91;;;12.27;42.80
77725;BME280;66892;53.236;6.550;2023-04-25T12:31:44;101604.22;;;10.92;46.76
77725;BME280;66892;53.236;6.550;2023-04-25T12:34:11;101588.34;;;10.90;46.98
77725;BME280;66892;53.236;6.550;2023-04-25T12:36:37;101588.00;;;13.52;40.72
77725;BME280;66892;53.236;6.550;2023-04-25T12:39:04;101573.06;;;12.19;43.77
77725;BME280;66892;53.236;6.550;2023-04-25T12:41:31;101589.34;;;11.07;46.11
77725;BME280;66892;53.236;6.550;2023-04-25T12:43:57;101587.94;;;11.70;46.45
77725;BME280;66892;53.236;6.550;2023-04-25T12:46:24;101596.81;;;11.80;44.51
77725;BME280;66892;53.236;6.550;2023-04-25T12:48:50;101589.88;;;12.26;43.08
77725;BME280;66892;53.236;6.550;2023-04-25T12:51:16;101583.69;;;12.19;43.59
77725;BME280;66892;53.236;6.550;2023-04-25T12:53:42;101588.63;;;11.37;42.06
77725;BME280;66892;53.236;6.550;2023-04-25T12:56:08;101608.91;;;10.22;47.31